SWA3639 KABQ-KMCO
Flight info
| Callsign | SWA3639 |
|---|---|
| Flight time | 3h 12m |
| Altitude | 35000 |
| Route | DOOKK3 CME UNNOS GECKE JETDE JCT MCB CLAYS CEW J2 DEFUN GRNCH5 |
| Aircraft | B738/M-SDE2E3FGHIRWXY/LB1 |
Departure
| Time | 2026-04-25 12:14 |
|---|---|
| Airport | Albuquerque International Sunport (KABQ) |
Arrival
| Time | 2026-04-25 15:26 |
|---|---|
| Airport | Orlando International Airport (KMCO) |
| Time | Latitude | Longitude | Altitude | Speed | Heading |
|---|---|---|---|---|---|
| 2026-04-25 11:56 | 35.04788 | -106.61477 | 5337 ft | 0 kts | 184° |
| 2026-04-25 12:04 | 35.04800 | -106.61476 | 5333 ft | 4 kts | 177° |
| 2026-04-25 12:05 | 35.04825 | -106.61483 | 5333 ft | 4 kts | 144° |
| 2026-04-25 12:05 | 35.04837 | -106.61505 | 5335 ft | 2 kts | 91° |
| 2026-04-25 12:05 | 35.04837 | -106.61507 | 5335 ft | 1 kts | 90° |
| 2026-04-25 12:07 | 35.04837 | -106.61491 | 5336 ft | 5 kts | 90° |
| 2026-04-25 12:07 | 35.04836 | -106.61430 | 5332 ft | 10 kts | 92° |
| 2026-04-25 12:07 | 35.04829 | -106.61329 | 5335 ft | 14 kts | 112° |
| 2026-04-25 12:08 | 35.04720 | -106.61310 | 5334 ft | 20 kts | 181° |
| 2026-04-25 12:08 | 35.04594 | -106.61294 | 5331 ft | 18 kts | 128° |
| 2026-04-25 12:08 | 35.04581 | -106.61123 | 5333 ft | 23 kts | 90° |
| 2026-04-25 12:08 | 35.04580 | -106.60905 | 5331 ft | 28 kts | 90° |
| 2026-04-25 12:09 | 35.04578 | -106.60657 | 5331 ft | 31 kts | 91° |
| 2026-04-25 12:09 | 35.04577 | -106.60397 | 5333 ft | 17 kts | 91° |
| 2026-04-25 12:09 | 35.04574 | -106.60239 | 5334 ft | 21 kts | 90° |
| 2026-04-25 12:09 | 35.04573 | -106.60042 | 5334 ft | 26 kts | 90° |
| 2026-04-25 12:10 | 35.04579 | -106.59812 | 5338 ft | 28 kts | 85° |
| 2026-04-25 12:10 | 35.04580 | -106.59557 | 5343 ft | 32 kts | 90° |
| 2026-04-25 12:10 | 35.04582 | -106.59276 | 5347 ft | 34 kts | 89° |
| 2026-04-25 12:10 | 35.04580 | -106.58972 | 5347 ft | 37 kts | 91° |
| 2026-04-25 12:11 | 35.04579 | -106.58651 | 5350 ft | 39 kts | 90° |
| 2026-04-25 12:11 | 35.04576 | -106.58316 | 5356 ft | 40 kts | 90° |
| 2026-04-25 12:11 | 35.04574 | -106.57968 | 5358 ft | 42 kts | 90° |
| 2026-04-25 12:11 | 35.04573 | -106.57689 | 5362 ft | 13 kts | 90° |
| 2026-04-25 12:12 | 35.04539 | -106.57587 | 5361 ft | 11 kts | 146° |
| 2026-04-25 12:12 | 35.04486 | -106.57571 | 5361 ft | 13 kts | 178° |
| 2026-04-25 12:12 | 35.04401 | -106.57583 | 5361 ft | 4 kts | 214° |
| 2026-04-25 12:12 | 35.04401 | -106.57616 | 5360 ft | 5 kts | 289° |
| 2026-04-25 12:13 | 35.04406 | -106.57677 | 5359 ft | 9 kts | 270° |
| 2026-04-25 12:13 | 35.04407 | -106.57878 | 5357 ft | 52 kts | 270° |
| 2026-04-25 12:13 | 35.04413 | -106.58591 | 5355 ft | 114 kts | 270° |
| 2026-04-25 12:13 | 35.04421 | -106.59786 | 5336 ft | 167 kts | 270° |
| 2026-04-25 12:14 | 35.04420 | -106.61348 | 5643 ft | 193 kts | 268° |
| 2026-04-25 12:14 | 35.04382 | -106.63030 | 6367 ft | 197 kts | 267° |
| 2026-04-25 12:14 | 35.04336 | -106.64690 | 7015 ft | 201 kts | 268° |
| 2026-04-25 12:14 | 35.04273 | -106.66396 | 7457 ft | 203 kts | 268° |
| 2026-04-25 12:15 | 35.04193 | -106.68183 | 7721 ft | 217 kts | 267° |
| 2026-04-25 12:15 | 35.04002 | -106.70046 | 7959 ft | 234 kts | 249° |
| 2026-04-25 12:15 | 35.02909 | -106.71654 | 8125 ft | 259 kts | 216° |
| 2026-04-25 12:15 | 35.01168 | -106.72518 | 8401 ft | 283 kts | 190° |
| 2026-04-25 12:16 | 34.99171 | -106.72307 | 8943 ft | 298 kts | 162° |
| 2026-04-25 12:16 | 34.97399 | -106.71018 | 9603 ft | 307 kts | 142° |
| 2026-04-25 12:16 | 34.95842 | -106.69197 | 10190 ft | 315 kts | 135° |
| 2026-04-25 12:16 | 34.94296 | -106.67129 | 10398 ft | 337 kts | 133° |
| 2026-04-25 12:17 | 34.92694 | -106.64918 | 10568 ft | 359 kts | 133° |
| 2026-04-25 12:17 | 34.91016 | -106.62607 | 10710 ft | 379 kts | 133° |
| 2026-04-25 12:17 | 34.89203 | -106.60140 | 11015 ft | 392 kts | 134° |
| 2026-04-25 12:17 | 34.88601 | -106.59328 | 11159 ft | 394 kts | 134° |
| 2026-04-25 12:18 | 34.86746 | -106.56845 | 11782 ft | 397 kts | 135° |
| 2026-04-25 12:18 | 34.84879 | -106.54367 | 12445 ft | 399 kts | 135° |
| 2026-04-25 12:18 | 34.82987 | -106.51875 | 13020 ft | 403 kts | 136° |
| 2026-04-25 12:18 | 34.81095 | -106.49395 | 13590 ft | 407 kts | 136° |
| 2026-04-25 12:19 | 34.77838 | -106.45140 | 14519 ft | 413 kts | 137° |
| 2026-04-25 12:19 | 34.75279 | -106.41806 | 15234 ft | 419 kts | 137° |
| 2026-04-25 12:19 | 34.73178 | -106.39071 | 15780 ft | 422 kts | 137° |
| 2026-04-25 12:20 | 34.71208 | -106.36508 | 16278 ft | 425 kts | 138° |
| 2026-04-25 12:20 | 34.69366 | -106.34354 | 16736 ft | 426 kts | 140° |
| 2026-04-25 12:20 | 34.67285 | -106.31751 | 17225 ft | 432 kts | 138° |
| 2026-04-25 12:20 | 34.65282 | -106.29102 | 17732 ft | 435 kts | 137° |
| 2026-04-25 12:21 | 34.63203 | -106.26311 | 18213 ft | 439 kts | 137° |
| 2026-04-25 12:21 | 34.61144 | -106.23556 | 18617 ft | 443 kts | 138° |
| 2026-04-25 12:21 | 34.59058 | -106.20793 | 19034 ft | 446 kts | 138° |
| 2026-04-25 12:21 | 34.56958 | -106.18038 | 19436 ft | 450 kts | 138° |
| 2026-04-25 12:22 | 34.54803 | -106.15231 | 19846 ft | 453 kts | 139° |
| 2026-04-25 12:22 | 34.52645 | -106.12435 | 20246 ft | 457 kts | 139° |
| 2026-04-25 12:22 | 34.50462 | -106.09616 | 20640 ft | 460 kts | 139° |
| 2026-04-25 12:22 | 34.48260 | -106.06777 | 21030 ft | 464 kts | 139° |
| 2026-04-25 12:23 | 34.46042 | -106.03919 | 21396 ft | 467 kts | 139° |
| 2026-04-25 12:23 | 34.43807 | -106.01042 | 21767 ft | 470 kts | 139° |
| 2026-04-25 12:23 | 34.41559 | -105.98149 | 22133 ft | 474 kts | 139° |
| 2026-04-25 12:23 | 34.39313 | -105.95261 | 22490 ft | 477 kts | 139° |
| 2026-04-25 12:24 | 34.37009 | -105.92301 | 22799 ft | 481 kts | 139° |
| 2026-04-25 12:24 | 34.34708 | -105.89347 | 23131 ft | 483 kts | 139° |
| 2026-04-25 12:24 | 34.32396 | -105.86381 | 23479 ft | 486 kts | 139° |
| 2026-04-25 12:24 | 34.30073 | -105.83402 | 23766 ft | 488 kts | 139° |
| 2026-04-25 12:25 | 34.27734 | -105.80407 | 24058 ft | 490 kts | 139° |
| 2026-04-25 12:25 | 34.25402 | -105.77422 | 24359 ft | 492 kts | 139° |
| 2026-04-25 12:25 | 34.23034 | -105.74393 | 24638 ft | 494 kts | 139° |
| 2026-04-25 12:25 | 34.20666 | -105.71370 | 24901 ft | 497 kts | 139° |
| 2026-04-25 12:26 | 34.18292 | -105.68340 | 25157 ft | 499 kts | 139° |
| 2026-04-25 12:26 | 34.16707 | -105.66320 | 25332 ft | 500 kts | 139° |
| 2026-04-25 12:26 | 34.14312 | -105.63267 | 25595 ft | 502 kts | 139° |
| 2026-04-25 12:26 | 34.11093 | -105.59169 | 25944 ft | 504 kts | 139° |
| 2026-04-25 12:27 | 34.08702 | -105.56128 | 26212 ft | 505 kts | 139° |
| 2026-04-25 12:27 | 34.07066 | -105.54049 | 26411 ft | 506 kts | 139° |
| 2026-04-25 12:27 | 34.04638 | -105.50965 | 26665 ft | 508 kts | 139° |
| 2026-04-25 12:27 | 34.02205 | -105.47879 | 26904 ft | 509 kts | 139° |
| 2026-04-25 12:28 | 33.99756 | -105.44776 | 27144 ft | 511 kts | 139° |
| 2026-04-25 12:28 | 33.97330 | -105.41705 | 27385 ft | 513 kts | 139° |
| 2026-04-25 12:28 | 33.94035 | -105.37536 | 27687 ft | 515 kts | 139° |
| 2026-04-25 12:28 | 33.92368 | -105.35429 | 27840 ft | 516 kts | 139° |
| 2026-04-25 12:29 | 33.89886 | -105.32294 | 28084 ft | 517 kts | 139° |
| 2026-04-25 12:29 | 33.87405 | -105.29162 | 28382 ft | 517 kts | 139° |
| 2026-04-25 12:29 | 33.84929 | -105.26039 | 28717 ft | 516 kts | 140° |
| 2026-04-25 12:29 | 33.82451 | -105.22917 | 29024 ft | 516 kts | 140° |
| 2026-04-25 12:30 | 33.79975 | -105.19800 | 29295 ft | 517 kts | 140° |
| 2026-04-25 12:30 | 33.77491 | -105.16678 | 29577 ft | 517 kts | 140° |
| 2026-04-25 12:30 | 33.74999 | -105.13548 | 29891 ft | 517 kts | 140° |
| 2026-04-25 12:30 | 33.72522 | -105.10439 | 30155 ft | 516 kts | 140° |
| 2026-04-25 12:31 | 33.70034 | -105.07320 | 30369 ft | 517 kts | 140° |
| 2026-04-25 12:31 | 33.67538 | -105.04193 | 30560 ft | 519 kts | 140° |
| 2026-04-25 12:31 | 33.65038 | -105.01065 | 30804 ft | 519 kts | 140° |
| 2026-04-25 12:31 | 33.62542 | -104.97942 | 31075 ft | 518 kts | 140° |
| 2026-04-25 12:32 | 33.60045 | -104.94821 | 31300 ft | 519 kts | 140° |
| 2026-04-25 12:32 | 33.57542 | -104.91698 | 31508 ft | 520 kts | 140° |
| 2026-04-25 12:32 | 33.55075 | -104.88620 | 31707 ft | 521 kts | 141° |
| 2026-04-25 12:32 | 33.52525 | -104.85443 | 31937 ft | 521 kts | 141° |
| 2026-04-25 12:33 | 33.50012 | -104.82314 | 32173 ft | 521 kts | 141° |
| 2026-04-25 12:33 | 33.47492 | -104.79178 | 32389 ft | 522 kts | 141° |
| 2026-04-25 12:33 | 33.44968 | -104.76041 | 32608 ft | 523 kts | 141° |
| 2026-04-25 12:33 | 33.42445 | -104.72907 | 32839 ft | 523 kts | 141° |
| 2026-04-25 12:34 | 33.39915 | -104.69766 | 33058 ft | 524 kts | 141° |
| 2026-04-25 12:34 | 33.37442 | -104.66632 | 33247 ft | 529 kts | 136° |
| 2026-04-25 12:34 | 33.35312 | -104.62916 | 33414 ft | 541 kts | 122° |
| 2026-04-25 12:34 | 33.34260 | -104.60206 | 33559 ft | 545 kts | 114° |
| 2026-04-25 12:35 | 33.33016 | -104.54323 | 33797 ft | 550 kts | 96° |
| 2026-04-25 12:35 | 33.32714 | -104.49763 | 34006 ft | 549 kts | 93° |
| 2026-04-25 12:35 | 33.32496 | -104.45216 | 34264 ft | 547 kts | 92° |
| 2026-04-25 12:35 | 33.32298 | -104.40676 | 34519 ft | 545 kts | 92° |
| 2026-04-25 12:36 | 33.32088 | -104.36167 | 34737 ft | 543 kts | 93° |
| 2026-04-25 12:36 | 33.31856 | -104.31723 | 34859 ft | 544 kts | 94° |
| 2026-04-25 12:36 | 33.31597 | -104.27201 | 34814 ft | 547 kts | 94° |
| 2026-04-25 12:37 | 33.31028 | -104.18146 | 34773 ft | 544 kts | 94° |
| 2026-04-25 12:37 | 33.30438 | -104.09149 | 34725 ft | 542 kts | 94° |
| 2026-04-25 12:38 | 33.29849 | -104.00200 | 34730 ft | 539 kts | 94° |
| 2026-04-25 12:38 | 33.29261 | -103.91270 | 34744 ft | 538 kts | 94° |
| 2026-04-25 12:39 | 33.28671 | -103.82363 | 34746 ft | 537 kts | 94° |
| 2026-04-25 12:39 | 33.28074 | -103.73460 | 34740 ft | 538 kts | 94° |
| 2026-04-25 12:40 | 33.27469 | -103.64546 | 34743 ft | 538 kts | 95° |
| 2026-04-25 12:40 | 33.26857 | -103.55627 | 34744 ft | 540 kts | 95° |
| 2026-04-25 12:41 | 33.26237 | -103.46680 | 34745 ft | 541 kts | 94° |
| 2026-04-25 12:41 | 33.25609 | -103.37714 | 34747 ft | 542 kts | 94° |
| 2026-04-25 12:42 | 33.24973 | -103.28718 | 34747 ft | 544 kts | 94° |
| 2026-04-25 12:42 | 33.24329 | -103.19702 | 34742 ft | 545 kts | 94° |
| 2026-04-25 12:43 | 33.23678 | -103.10688 | 34742 ft | 545 kts | 94° |
| 2026-04-25 12:43 | 33.22688 | -102.97153 | 34735 ft | 545 kts | 94° |
| 2026-04-25 12:44 | 33.22020 | -102.88134 | 34733 ft | 545 kts | 95° |
| 2026-04-25 12:45 | 33.20737 | -102.74689 | 34720 ft | 542 kts | 108° |
| 2026-04-25 12:45 | 33.19362 | -102.70538 | 34740 ft | 535 kts | 122° |
| 2026-04-25 12:45 | 33.14942 | -102.63650 | 34735 ft | 516 kts | 143° |
| 2026-04-25 12:46 | 33.09735 | -102.57822 | 34727 ft | 516 kts | 144° |
| 2026-04-25 12:46 | 33.04476 | -102.51935 | 34722 ft | 517 kts | 144° |
| 2026-04-25 12:47 | 32.99262 | -102.46004 | 34727 ft | 518 kts | 143° |
| 2026-04-25 12:47 | 32.94062 | -102.40046 | 34743 ft | 519 kts | 143° |
| 2026-04-25 12:48 | 32.88853 | -102.34080 | 34739 ft | 520 kts | 143° |
| 2026-04-25 12:48 | 32.83632 | -102.28118 | 34745 ft | 520 kts | 143° |
| 2026-04-25 12:49 | 32.78442 | -102.22204 | 34780 ft | 520 kts | 143° |
| 2026-04-25 12:49 | 32.73181 | -102.16222 | 34794 ft | 520 kts | 143° |
| 2026-04-25 12:50 | 32.67954 | -102.10288 | 34811 ft | 519 kts | 143° |
| 2026-04-25 12:50 | 32.62736 | -102.04374 | 34815 ft | 518 kts | 143° |
| 2026-04-25 12:51 | 32.57490 | -101.98438 | 34805 ft | 517 kts | 143° |
| 2026-04-25 12:51 | 32.52323 | -101.92603 | 34783 ft | 516 kts | 143° |
| 2026-04-25 12:52 | 32.47087 | -101.86699 | 34759 ft | 515 kts | 143° |
| 2026-04-25 12:52 | 32.41930 | -101.80895 | 34745 ft | 515 kts | 143° |
| 2026-04-25 12:53 | 32.36743 | -101.75065 | 34776 ft | 514 kts | 143° |
| 2026-04-25 12:53 | 32.31558 | -101.69249 | 34809 ft | 514 kts | 143° |
| 2026-04-25 12:54 | 32.26334 | -101.63397 | 34850 ft | 513 kts | 143° |
| 2026-04-25 12:54 | 32.21152 | -101.57603 | 34859 ft | 514 kts | 143° |
| 2026-04-25 12:55 | 32.16834 | -101.52782 | 34860 ft | 514 kts | 143° |
| 2026-04-25 12:55 | 32.10757 | -101.46009 | 34848 ft | 514 kts | 143° |
| 2026-04-25 12:56 | 32.05548 | -101.40213 | 34808 ft | 515 kts | 143° |
| 2026-04-25 12:56 | 32.00336 | -101.34423 | 34779 ft | 515 kts | 143° |
| 2026-04-25 12:57 | 31.95126 | -101.28645 | 34743 ft | 516 kts | 143° |
| 2026-04-25 12:57 | 31.89889 | -101.22846 | 34737 ft | 516 kts | 143° |
| 2026-04-25 12:58 | 31.84656 | -101.17062 | 34734 ft | 516 kts | 143° |
| 2026-04-25 12:58 | 31.79441 | -101.11306 | 34741 ft | 517 kts | 143° |
| 2026-04-25 12:59 | 31.74174 | -101.05502 | 34734 ft | 517 kts | 143° |
| 2026-04-25 12:59 | 31.68927 | -100.99731 | 34743 ft | 517 kts | 143° |
| 2026-04-25 13:00 | 31.65419 | -100.95876 | 34738 ft | 517 kts | 143° |
| 2026-04-25 13:00 | 31.58424 | -100.88206 | 34739 ft | 517 kts | 143° |
| 2026-04-25 13:01 | 31.53166 | -100.82449 | 34758 ft | 517 kts | 143° |
| 2026-04-25 13:01 | 31.47905 | -100.76699 | 34778 ft | 517 kts | 143° |
| 2026-04-25 13:02 | 31.42641 | -100.70955 | 34808 ft | 517 kts | 143° |
| 2026-04-25 13:02 | 31.37373 | -100.65217 | 34825 ft | 517 kts | 143° |
| 2026-04-25 13:03 | 31.32110 | -100.59492 | 34840 ft | 517 kts | 143° |
| 2026-04-25 13:03 | 31.26841 | -100.53770 | 34838 ft | 517 kts | 143° |
| 2026-04-25 13:04 | 31.21576 | -100.48062 | 34827 ft | 516 kts | 143° |
| 2026-04-25 13:04 | 31.16312 | -100.42364 | 34806 ft | 516 kts | 143° |
| 2026-04-25 13:05 | 31.11040 | -100.36667 | 34791 ft | 517 kts | 143° |
| 2026-04-25 13:05 | 31.05760 | -100.30969 | 34770 ft | 517 kts | 143° |
| 2026-04-25 13:06 | 31.01339 | -100.26206 | 34765 ft | 516 kts | 143° |
| 2026-04-25 13:06 | 30.96066 | -100.20532 | 34768 ft | 516 kts | 143° |
| 2026-04-25 13:07 | 30.90785 | -100.14859 | 34768 ft | 516 kts | 143° |
| 2026-04-25 13:07 | 30.85469 | -100.09157 | 34774 ft | 516 kts | 143° |
| 2026-04-25 13:08 | 30.80190 | -100.03504 | 34774 ft | 516 kts | 143° |
| 2026-04-25 13:08 | 30.74906 | -99.97854 | 34793 ft | 516 kts | 143° |
| 2026-04-25 13:09 | 30.69620 | -99.92209 | 34820 ft | 516 kts | 143° |
| 2026-04-25 13:09 | 30.64342 | -99.86568 | 34841 ft | 517 kts | 141° |
| 2026-04-25 13:10 | 30.62099 | -99.83256 | 34844 ft | 528 kts | 121° |
| 2026-04-25 13:10 | 30.60669 | -99.79323 | 34871 ft | 532 kts | 105° |
| 2026-04-25 13:10 | 30.60107 | -99.75087 | 34859 ft | 530 kts | 88° |
| 2026-04-25 13:10 | 30.60303 | -99.70838 | 34896 ft | 528 kts | 83° |
| 2026-04-25 13:11 | 30.60978 | -99.62339 | 34857 ft | 529 kts | 81° |
| 2026-04-25 13:11 | 30.61658 | -99.53829 | 34823 ft | 530 kts | 82° |
| 2026-04-25 13:12 | 30.62261 | -99.45280 | 34806 ft | 532 kts | 83° |
| 2026-04-25 13:12 | 30.62726 | -99.38173 | 34781 ft | 533 kts | 83° |
| 2026-04-25 13:13 | 30.63366 | -99.28132 | 34783 ft | 533 kts | 83° |
| 2026-04-25 13:13 | 30.63912 | -99.19549 | 34777 ft | 533 kts | 83° |
| 2026-04-25 13:14 | 30.64456 | -99.10955 | 34784 ft | 533 kts | 83° |
| 2026-04-25 13:14 | 30.64995 | -99.02373 | 34790 ft | 533 kts | 83° |
| 2026-04-25 13:15 | 30.65528 | -98.93799 | 34810 ft | 532 kts | 83° |
| 2026-04-25 13:15 | 30.66055 | -98.85228 | 34827 ft | 532 kts | 83° |
| 2026-04-25 13:16 | 30.66573 | -98.76696 | 34844 ft | 531 kts | 83° |
| 2026-04-25 13:16 | 30.67093 | -98.68053 | 34857 ft | 531 kts | 82° |
| 2026-04-25 13:17 | 30.67601 | -98.59499 | 34855 ft | 530 kts | 83° |
| 2026-04-25 13:17 | 30.68103 | -98.50949 | 34838 ft | 530 kts | 83° |
| 2026-04-25 13:18 | 30.68600 | -98.42399 | 34844 ft | 530 kts | 82° |
| 2026-04-25 13:18 | 30.69091 | -98.33857 | 34884 ft | 530 kts | 82° |
| 2026-04-25 13:19 | 30.69576 | -98.25327 | 34875 ft | 530 kts | 83° |
| 2026-04-25 13:19 | 30.69975 | -98.18221 | 34883 ft | 530 kts | 83° |
| 2026-04-25 13:20 | 30.70529 | -98.08234 | 34866 ft | 530 kts | 82° |
| 2026-04-25 13:20 | 30.70998 | -97.99696 | 34851 ft | 530 kts | 82° |
| 2026-04-25 13:21 | 30.71461 | -97.91139 | 34853 ft | 530 kts | 83° |
| 2026-04-25 13:21 | 30.71919 | -97.82584 | 34871 ft | 530 kts | 83° |
| 2026-04-25 13:22 | 30.72370 | -97.74049 | 34880 ft | 531 kts | 83° |
| 2026-04-25 13:23 | 30.73039 | -97.61178 | 34882 ft | 531 kts | 83° |
| 2026-04-25 13:23 | 30.73474 | -97.52676 | 34870 ft | 531 kts | 83° |
| 2026-04-25 13:24 | 30.73907 | -97.44102 | 34860 ft | 531 kts | 83° |
| 2026-04-25 13:24 | 30.74334 | -97.35535 | 34846 ft | 531 kts | 83° |
| 2026-04-25 13:25 | 30.74756 | -97.26969 | 34828 ft | 531 kts | 83° |
| 2026-04-25 13:25 | 30.75172 | -97.18404 | 34833 ft | 530 kts | 83° |
| 2026-04-25 13:26 | 30.75581 | -97.09847 | 34835 ft | 530 kts | 83° |
| 2026-04-25 13:26 | 30.75986 | -97.01291 | 34833 ft | 530 kts | 83° |
| 2026-04-25 13:27 | 30.76386 | -96.92680 | 34844 ft | 530 kts | 83° |
| 2026-04-25 13:27 | 30.76778 | -96.84139 | 34856 ft | 529 kts | 83° |
| 2026-04-25 13:28 | 30.77165 | -96.75584 | 34862 ft | 529 kts | 83° |
| 2026-04-25 13:28 | 30.77543 | -96.67104 | 34866 ft | 529 kts | 83° |
| 2026-04-25 13:29 | 30.77918 | -96.58574 | 34872 ft | 528 kts | 83° |
| 2026-04-25 13:29 | 30.78289 | -96.49993 | 34869 ft | 528 kts | 83° |
| 2026-04-25 13:30 | 30.78832 | -96.37205 | 34899 ft | 527 kts | 83° |
| 2026-04-25 13:31 | 30.79362 | -96.24424 | 34890 ft | 527 kts | 83° |
| 2026-04-25 13:31 | 30.79708 | -96.15912 | 34884 ft | 527 kts | 83° |
| 2026-04-25 13:32 | 30.80047 | -96.07408 | 34873 ft | 526 kts | 83° |
| 2026-04-25 13:32 | 30.80382 | -95.98901 | 34854 ft | 526 kts | 83° |
| 2026-04-25 13:33 | 30.80711 | -95.90406 | 34848 ft | 526 kts | 83° |
| 2026-04-25 13:33 | 30.81034 | -95.81906 | 34853 ft | 526 kts | 83° |
| 2026-04-25 13:34 | 30.81351 | -95.73414 | 34861 ft | 525 kts | 83° |
| 2026-04-25 13:34 | 30.81664 | -95.64871 | 34866 ft | 525 kts | 83° |
| 2026-04-25 13:35 | 30.81970 | -95.56388 | 34873 ft | 525 kts | 83° |
| 2026-04-25 13:35 | 30.82270 | -95.47913 | 34861 ft | 524 kts | 83° |
| 2026-04-25 13:36 | 30.82564 | -95.39442 | 34857 ft | 524 kts | 83° |
| 2026-04-25 13:36 | 30.82853 | -95.30975 | 34843 ft | 523 kts | 83° |
| 2026-04-25 13:37 | 30.83135 | -95.22522 | 34849 ft | 522 kts | 83° |
| 2026-04-25 13:37 | 30.83412 | -95.14079 | 34847 ft | 522 kts | 83° |
| 2026-04-25 13:38 | 30.83683 | -95.05645 | 34866 ft | 521 kts | 83° |
| 2026-04-25 13:38 | 30.83948 | -94.97226 | 34862 ft | 521 kts | 83° |
| 2026-04-25 13:39 | 30.84208 | -94.88798 | 34863 ft | 521 kts | 83° |
| 2026-04-25 13:39 | 30.84419 | -94.81822 | 34871 ft | 520 kts | 83° |
| 2026-04-25 13:40 | 30.84669 | -94.73393 | 34869 ft | 520 kts | 83° |
| 2026-04-25 13:40 | 30.84913 | -94.64991 | 34874 ft | 519 kts | 83° |
| 2026-04-25 13:41 | 30.85151 | -94.56594 | 34877 ft | 519 kts | 83° |
| 2026-04-25 13:41 | 30.85383 | -94.48201 | 34875 ft | 519 kts | 83° |
| 2026-04-25 13:42 | 30.85610 | -94.39812 | 34873 ft | 519 kts | 84° |
| 2026-04-25 13:42 | 30.85832 | -94.31423 | 34864 ft | 518 kts | 83° |
| 2026-04-25 13:43 | 30.86048 | -94.23038 | 34873 ft | 518 kts | 84° |
| 2026-04-25 13:43 | 30.86258 | -94.14669 | 34872 ft | 517 kts | 84° |
| 2026-04-25 13:44 | 30.86463 | -94.06308 | 34869 ft | 517 kts | 84° |
| 2026-04-25 13:44 | 30.86662 | -93.97967 | 34869 ft | 516 kts | 84° |
| 2026-04-25 13:45 | 30.86856 | -93.89590 | 34865 ft | 516 kts | 84° |
| 2026-04-25 13:45 | 30.87044 | -93.81249 | 34865 ft | 515 kts | 84° |
| 2026-04-25 13:46 | 30.87227 | -93.72909 | 34858 ft | 515 kts | 84° |
| 2026-04-25 13:46 | 30.87403 | -93.64634 | 34859 ft | 514 kts | 84° |
| 2026-04-25 13:47 | 30.87575 | -93.56277 | 34863 ft | 513 kts | 84° |
| 2026-04-25 13:47 | 30.87741 | -93.47976 | 34872 ft | 513 kts | 84° |
| 2026-04-25 13:48 | 30.87901 | -93.39691 | 34884 ft | 512 kts | 85° |
| 2026-04-25 13:48 | 30.88056 | -93.31406 | 34881 ft | 511 kts | 85° |
| 2026-04-25 13:49 | 30.88206 | -93.23144 | 34878 ft | 511 kts | 85° |
| 2026-04-25 13:49 | 30.88349 | -93.14911 | 34864 ft | 510 kts | 85° |
| 2026-04-25 13:50 | 30.88490 | -93.06567 | 34861 ft | 510 kts | 85° |
| 2026-04-25 13:50 | 30.88623 | -92.98325 | 34860 ft | 509 kts | 85° |
| 2026-04-25 13:51 | 30.88750 | -92.90149 | 34869 ft | 508 kts | 85° |
| 2026-04-25 13:51 | 30.88873 | -92.81873 | 34877 ft | 507 kts | 85° |
| 2026-04-25 13:52 | 30.88989 | -92.73717 | 34877 ft | 507 kts | 85° |
| 2026-04-25 13:52 | 30.89101 | -92.65540 | 34881 ft | 506 kts | 85° |
| 2026-04-25 13:53 | 30.89207 | -92.57348 | 34877 ft | 505 kts | 86° |
| 2026-04-25 13:53 | 30.89309 | -92.49185 | 34879 ft | 504 kts | 86° |
| 2026-04-25 13:54 | 30.89405 | -92.40978 | 34872 ft | 503 kts | 86° |
| 2026-04-25 13:54 | 30.89496 | -92.32832 | 34885 ft | 502 kts | 86° |
| 2026-04-25 13:55 | 30.89581 | -92.24707 | 34897 ft | 502 kts | 86° |
| 2026-04-25 13:55 | 30.89661 | -92.16591 | 34907 ft | 501 kts | 86° |
| 2026-04-25 13:56 | 30.89736 | -92.08481 | 34912 ft | 500 kts | 87° |
| 2026-04-25 13:56 | 30.89806 | -92.00382 | 34907 ft | 500 kts | 87° |
| 2026-04-25 13:57 | 30.89871 | -91.92295 | 34904 ft | 499 kts | 87° |
| 2026-04-25 13:57 | 30.89931 | -91.84210 | 34893 ft | 499 kts | 87° |
| 2026-04-25 13:58 | 30.89985 | -91.76130 | 34886 ft | 499 kts | 87° |
| 2026-04-25 13:58 | 30.90035 | -91.68052 | 34892 ft | 499 kts | 88° |
| 2026-04-25 13:59 | 30.90079 | -91.60009 | 34903 ft | 498 kts | 88° |
| 2026-04-25 13:59 | 30.90119 | -91.51872 | 34907 ft | 498 kts | 88° |
| 2026-04-25 14:00 | 30.90154 | -91.43750 | 34912 ft | 498 kts | 88° |
| 2026-04-25 14:00 | 30.90183 | -91.35691 | 34907 ft | 498 kts | 88° |
| 2026-04-25 14:01 | 30.90207 | -91.27637 | 34901 ft | 497 kts | 88° |
| 2026-04-25 14:01 | 30.90227 | -91.19590 | 34909 ft | 497 kts | 88° |
| 2026-04-25 14:02 | 30.90241 | -91.11537 | 34896 ft | 497 kts | 88° |
| 2026-04-25 14:02 | 30.90251 | -91.03546 | 34894 ft | 497 kts | 88° |
| 2026-04-25 14:03 | 30.90255 | -90.95452 | 34896 ft | 496 kts | 88° |
| 2026-04-25 14:03 | 30.90254 | -90.87425 | 34897 ft | 495 kts | 88° |
| 2026-04-25 14:04 | 30.90249 | -90.79413 | 34907 ft | 495 kts | 88° |
| 2026-04-25 14:04 | 30.90238 | -90.71410 | 34909 ft | 494 kts | 89° |
| 2026-04-25 14:05 | 30.90223 | -90.63412 | 34920 ft | 493 kts | 89° |
| 2026-04-25 14:05 | 30.90203 | -90.55436 | 34922 ft | 493 kts | 89° |
| 2026-04-25 14:06 | 30.90178 | -90.47463 | 34926 ft | 492 kts | 89° |
| 2026-04-25 14:06 | 30.90148 | -90.39509 | 34929 ft | 491 kts | 89° |
| 2026-04-25 14:07 | 30.90113 | -90.31564 | 34933 ft | 491 kts | 89° |
| 2026-04-25 14:07 | 30.90074 | -90.23617 | 34920 ft | 490 kts | 89° |
| 2026-04-25 14:08 | 30.90029 | -90.15687 | 34931 ft | 489 kts | 89° |
| 2026-04-25 14:08 | 30.89980 | -90.07784 | 34933 ft | 487 kts | 89° |
| 2026-04-25 14:09 | 30.89926 | -89.99860 | 34941 ft | 486 kts | 89° |
| 2026-04-25 14:09 | 30.89868 | -89.92005 | 34944 ft | 484 kts | 89° |
| 2026-04-25 14:10 | 30.89805 | -89.84167 | 34934 ft | 483 kts | 89° |
| 2026-04-25 14:10 | 30.89738 | -89.76405 | 34942 ft | 482 kts | 89° |
| 2026-04-25 14:11 | 30.89666 | -89.68582 | 34943 ft | 480 kts | 89° |
| 2026-04-25 14:11 | 30.89590 | -89.60801 | 34942 ft | 480 kts | 89° |
| 2026-04-25 14:12 | 30.89509 | -89.53028 | 34944 ft | 481 kts | 89° |
| 2026-04-25 14:12 | 30.89424 | -89.45250 | 34942 ft | 481 kts | 89° |
| 2026-04-25 14:13 | 30.89333 | -89.37467 | 34944 ft | 481 kts | 89° |
| 2026-04-25 14:13 | 30.89255 | -89.31000 | 34943 ft | 481 kts | 89° |
| 2026-04-25 14:14 | 30.89156 | -89.23212 | 34951 ft | 481 kts | 89° |
| 2026-04-25 14:14 | 30.89052 | -89.15427 | 34966 ft | 481 kts | 89° |
| 2026-04-25 14:15 | 30.88944 | -89.07620 | 34957 ft | 483 kts | 89° |
| 2026-04-25 14:15 | 30.88830 | -88.99802 | 34964 ft | 483 kts | 89° |
| 2026-04-25 14:16 | 30.88712 | -88.91980 | 34962 ft | 483 kts | 89° |
| 2026-04-25 14:16 | 30.88589 | -88.84160 | 34970 ft | 483 kts | 89° |
| 2026-04-25 14:17 | 30.88461 | -88.76338 | 34973 ft | 483 kts | 89° |
| 2026-04-25 14:17 | 30.88329 | -88.68515 | 34974 ft | 484 kts | 89° |
| 2026-04-25 14:18 | 30.88192 | -88.60682 | 34977 ft | 484 kts | 89° |
| 2026-04-25 14:18 | 30.88050 | -88.52865 | 34978 ft | 484 kts | 90° |
| 2026-04-25 14:19 | 30.87902 | -88.44951 | 34973 ft | 485 kts | 90° |
| 2026-04-25 14:19 | 30.87751 | -88.37148 | 34971 ft | 486 kts | 90° |
| 2026-04-25 14:20 | 30.87594 | -88.29280 | 34973 ft | 487 kts | 90° |
| 2026-04-25 14:20 | 30.87433 | -88.21391 | 34971 ft | 488 kts | 90° |
| 2026-04-25 14:21 | 30.87265 | -88.13485 | 34964 ft | 489 kts | 90° |
| 2026-04-25 14:21 | 30.87093 | -88.05585 | 34969 ft | 489 kts | 90° |
| 2026-04-25 14:22 | 30.86916 | -87.97672 | 34983 ft | 489 kts | 90° |
| 2026-04-25 14:22 | 30.86735 | -87.89764 | 34979 ft | 489 kts | 90° |
| 2026-04-25 14:23 | 30.86547 | -87.81819 | 34973 ft | 488 kts | 90° |
| 2026-04-25 14:23 | 30.86356 | -87.73907 | 34966 ft | 488 kts | 90° |
| 2026-04-25 14:24 | 30.86159 | -87.65971 | 34966 ft | 487 kts | 90° |
| 2026-04-25 14:24 | 30.85959 | -87.58098 | 34962 ft | 486 kts | 90° |
| 2026-04-25 14:25 | 30.85754 | -87.50235 | 34965 ft | 486 kts | 90° |
| 2026-04-25 14:25 | 30.85547 | -87.42426 | 34949 ft | 487 kts | 90° |
| 2026-04-25 14:26 | 30.85331 | -87.34495 | 34951 ft | 486 kts | 90° |
| 2026-04-25 14:26 | 30.85112 | -87.26643 | 34953 ft | 486 kts | 90° |
| 2026-04-25 14:27 | 30.84889 | -87.18787 | 34949 ft | 485 kts | 90° |
| 2026-04-25 14:27 | 30.84661 | -87.10952 | 34961 ft | 484 kts | 90° |
| 2026-04-25 14:28 | 30.84429 | -87.03122 | 34960 ft | 484 kts | 90° |
| 2026-04-25 14:28 | 30.84192 | -86.95300 | 34957 ft | 484 kts | 90° |
| 2026-04-25 14:29 | 30.83951 | -86.87469 | 34956 ft | 485 kts | 90° |
| 2026-04-25 14:29 | 30.83704 | -86.79624 | 34973 ft | 485 kts | 90° |
| 2026-04-25 14:30 | 30.83453 | -86.71776 | 34968 ft | 486 kts | 90° |
| 2026-04-25 14:30 | 30.83067 | -86.60024 | 34984 ft | 483 kts | 90° |
| 2026-04-25 14:31 | 30.82805 | -86.52227 | 34992 ft | 482 kts | 90° |
| 2026-04-25 14:31 | 30.82540 | -86.44446 | 34990 ft | 481 kts | 90° |
| 2026-04-25 14:32 | 30.82270 | -86.36681 | 34975 ft | 480 kts | 91° |
| 2026-04-25 14:32 | 30.81996 | -86.28935 | 34973 ft | 479 kts | 91° |
| 2026-04-25 14:33 | 30.81719 | -86.21207 | 34969 ft | 478 kts | 91° |
| 2026-04-25 14:33 | 30.81439 | -86.13473 | 34947 ft | 478 kts | 90° |
| 2026-04-25 14:34 | 30.81568 | -86.05766 | 34946 ft | 477 kts | 85° |
| 2026-04-25 14:34 | 30.81900 | -85.98063 | 34949 ft | 477 kts | 85° |
| 2026-04-25 14:35 | 30.82219 | -85.90358 | 34961 ft | 477 kts | 85° |
| 2026-04-25 14:35 | 30.82498 | -85.82654 | 34970 ft | 477 kts | 86° |
| 2026-04-25 14:36 | 30.82758 | -85.74904 | 34985 ft | 477 kts | 86° |
| 2026-04-25 14:36 | 30.83010 | -85.67213 | 34989 ft | 478 kts | 86° |
| 2026-04-25 14:37 | 30.83259 | -85.59483 | 34994 ft | 478 kts | 86° |
| 2026-04-25 14:37 | 30.83505 | -85.51760 | 34991 ft | 478 kts | 86° |
| 2026-04-25 14:38 | 30.83747 | -85.44028 | 34983 ft | 478 kts | 86° |
| 2026-04-25 14:38 | 30.83984 | -85.36292 | 34963 ft | 478 kts | 86° |
| 2026-04-25 14:39 | 30.84217 | -85.28555 | 34973 ft | 478 kts | 86° |
| 2026-04-25 14:39 | 30.84444 | -85.20823 | 34974 ft | 478 kts | 86° |
| 2026-04-25 14:40 | 30.84668 | -85.13094 | 34970 ft | 478 kts | 86° |
| 2026-04-25 14:40 | 30.84886 | -85.05370 | 34972 ft | 477 kts | 86° |
| 2026-04-25 14:41 | 30.85101 | -84.97596 | 34961 ft | 477 kts | 86° |
| 2026-04-25 14:41 | 30.85310 | -84.89886 | 34961 ft | 477 kts | 86° |
| 2026-04-25 14:42 | 30.85446 | -84.84770 | 34973 ft | 477 kts | 86° |
| 2026-04-25 14:42 | 30.85714 | -84.74456 | 34984 ft | 477 kts | 87° |
| 2026-04-25 14:43 | 30.85909 | -84.66745 | 34990 ft | 477 kts | 87° |
| 2026-04-25 14:43 | 30.86100 | -84.59031 | 34987 ft | 476 kts | 87° |
| 2026-04-25 14:44 | 30.86286 | -84.51321 | 34983 ft | 476 kts | 87° |
| 2026-04-25 14:44 | 30.86466 | -84.43628 | 34978 ft | 476 kts | 87° |
| 2026-04-25 14:45 | 30.86643 | -84.35932 | 34971 ft | 475 kts | 87° |
| 2026-04-25 14:45 | 30.86815 | -84.28240 | 34966 ft | 475 kts | 87° |
| 2026-04-25 14:46 | 30.86982 | -84.20565 | 34974 ft | 474 kts | 87° |
| 2026-04-25 14:46 | 30.87144 | -84.12894 | 34983 ft | 474 kts | 87° |
| 2026-04-25 14:47 | 30.87250 | -84.07764 | 34988 ft | 474 kts | 87° |
| 2026-04-25 14:47 | 30.87455 | -83.97565 | 35008 ft | 473 kts | 87° |
| 2026-04-25 14:48 | 30.87604 | -83.89904 | 34997 ft | 474 kts | 87° |
| 2026-04-25 14:48 | 30.87725 | -83.83491 | 35004 ft | 473 kts | 87° |
| 2026-04-25 14:49 | 30.87866 | -83.75831 | 34994 ft | 473 kts | 87° |
| 2026-04-25 14:49 | 30.87122 | -83.68256 | 34994 ft | 475 kts | 108° |
| 2026-04-25 14:50 | 30.85794 | -83.64734 | 34982 ft | 476 kts | 119° |
| 2026-04-25 14:50 | 30.83956 | -83.61545 | 34998 ft | 476 kts | 126° |
| 2026-04-25 14:50 | 30.79950 | -83.55350 | 34975 ft | 477 kts | 127° |
| 2026-04-25 14:51 | 30.76006 | -83.49231 | 34971 ft | 477 kts | 126° |
| 2026-04-25 14:51 | 30.71993 | -83.42928 | 34972 ft | 478 kts | 126° |
| 2026-04-25 14:52 | 30.68050 | -83.36698 | 34977 ft | 478 kts | 126° |
| 2026-04-25 14:52 | 30.64775 | -83.31527 | 34968 ft | 478 kts | 126° |
| 2026-04-25 14:53 | 30.60161 | -83.24260 | 34968 ft | 479 kts | 126° |
| 2026-04-25 14:53 | 30.56177 | -83.17998 | 34970 ft | 479 kts | 126° |
| 2026-04-25 14:54 | 30.52216 | -83.11784 | 34972 ft | 479 kts | 126° |
| 2026-04-25 14:54 | 30.48253 | -83.05575 | 34965 ft | 479 kts | 126° |
| 2026-04-25 14:55 | 30.44289 | -82.99375 | 34970 ft | 479 kts | 126° |
| 2026-04-25 14:55 | 30.40316 | -82.93170 | 34972 ft | 479 kts | 126° |
| 2026-04-25 14:56 | 30.36266 | -82.86855 | 34969 ft | 479 kts | 126° |
| 2026-04-25 14:56 | 30.32322 | -82.80714 | 34979 ft | 478 kts | 126° |
| 2026-04-25 14:57 | 30.28323 | -82.74497 | 34975 ft | 478 kts | 126° |
| 2026-04-25 14:57 | 30.24349 | -82.68329 | 34984 ft | 477 kts | 126° |
| 2026-04-25 14:58 | 30.20379 | -82.62177 | 34978 ft | 477 kts | 126° |
| 2026-04-25 14:58 | 30.18391 | -82.59099 | 34757 ft | 481 kts | 126° |
| 2026-04-25 14:58 | 30.16376 | -82.55982 | 34160 ft | 484 kts | 126° |
| 2026-04-25 14:59 | 30.14368 | -82.52878 | 33497 ft | 483 kts | 126° |
| 2026-04-25 14:59 | 30.12350 | -82.49762 | 32788 ft | 484 kts | 126° |
| 2026-04-25 14:59 | 30.10333 | -82.46650 | 32086 ft | 484 kts | 126° |
| 2026-04-25 14:59 | 30.08321 | -82.43546 | 31526 ft | 481 kts | 126° |
| 2026-04-25 15:00 | 30.06326 | -82.40472 | 31047 ft | 476 kts | 126° |
| 2026-04-25 15:00 | 30.04346 | -82.37425 | 30574 ft | 472 kts | 125° |
| 2026-04-25 15:00 | 30.02388 | -82.34413 | 30085 ft | 468 kts | 125° |
| 2026-04-25 15:00 | 30.00419 | -82.31383 | 29524 ft | 464 kts | 125° |
| 2026-04-25 15:01 | 29.98495 | -82.28426 | 29017 ft | 459 kts | 125° |
| 2026-04-25 15:01 | 29.96589 | -82.25499 | 28515 ft | 454 kts | 125° |
| 2026-04-25 15:01 | 29.94697 | -82.22598 | 28015 ft | 449 kts | 126° |
| 2026-04-25 15:01 | 29.92550 | -82.19998 | 27500 ft | 448 kts | 141° |
| 2026-04-25 15:02 | 29.89927 | -82.18115 | 27079 ft | 443 kts | 155° |
| 2026-04-25 15:02 | 29.87033 | -82.16974 | 26627 ft | 439 kts | 169° |
| 2026-04-25 15:02 | 29.84048 | -82.16378 | 26178 ft | 435 kts | 171° |
| 2026-04-25 15:02 | 29.81064 | -82.15837 | 25710 ft | 432 kts | 172° |
| 2026-04-25 15:03 | 29.78100 | -82.15301 | 25225 ft | 430 kts | 171° |
| 2026-04-25 15:03 | 29.75162 | -82.14752 | 24758 ft | 428 kts | 171° |
| 2026-04-25 15:03 | 29.72222 | -82.14186 | 24270 ft | 427 kts | 171° |
| 2026-04-25 15:03 | 29.69298 | -82.13612 | 23789 ft | 426 kts | 171° |
| 2026-04-25 15:04 | 29.66382 | -82.13033 | 23272 ft | 424 kts | 171° |
| 2026-04-25 15:04 | 29.63445 | -82.12447 | 22755 ft | 421 kts | 171° |
| 2026-04-25 15:04 | 29.60568 | -82.11874 | 22276 ft | 418 kts | 171° |
| 2026-04-25 15:04 | 29.57669 | -82.11297 | 21788 ft | 415 kts | 172° |
| 2026-04-25 15:05 | 29.54871 | -82.10742 | 21335 ft | 412 kts | 172° |
| 2026-04-25 15:05 | 29.52021 | -82.10177 | 20863 ft | 409 kts | 172° |
| 2026-04-25 15:05 | 29.49226 | -82.09623 | 20405 ft | 406 kts | 172° |
| 2026-04-25 15:06 | 29.43730 | -82.08535 | 19510 ft | 401 kts | 172° |
| 2026-04-25 15:06 | 29.40982 | -82.07993 | 19032 ft | 400 kts | 172° |
| 2026-04-25 15:06 | 29.38246 | -82.07453 | 18596 ft | 398 kts | 172° |
| 2026-04-25 15:06 | 29.35524 | -82.06916 | 18111 ft | 396 kts | 172° |
| 2026-04-25 15:07 | 29.32815 | -82.06381 | 17621 ft | 394 kts | 172° |
| 2026-04-25 15:07 | 29.30120 | -82.05658 | 17142 ft | 394 kts | 160° |
| 2026-04-25 15:07 | 29.27691 | -82.04224 | 16752 ft | 391 kts | 149° |
| 2026-04-25 15:07 | 29.25542 | -82.02381 | 16504 ft | 383 kts | 138° |
| 2026-04-25 15:08 | 29.23607 | -82.00239 | 16105 ft | 380 kts | 135° |
| 2026-04-25 15:08 | 29.21744 | -81.98093 | 15617 ft | 380 kts | 134° |
| 2026-04-25 15:08 | 29.19901 | -81.95955 | 15223 ft | 378 kts | 134° |
| 2026-04-25 15:08 | 29.18047 | -81.93811 | 14833 ft | 377 kts | 134° |
| 2026-04-25 15:09 | 29.16201 | -81.91692 | 14447 ft | 374 kts | 134° |
| 2026-04-25 15:09 | 29.14365 | -81.89597 | 14044 ft | 373 kts | 134° |
| 2026-04-25 15:09 | 29.13705 | -81.88846 | 13896 ft | 372 kts | 134° |
| 2026-04-25 15:10 | 29.12085 | -81.87009 | 13528 ft | 371 kts | 134° |
| 2026-04-25 15:10 | 29.09532 | -81.84120 | 13012 ft | 365 kts | 135° |
| 2026-04-25 15:11 | 29.09508 | -81.84093 | 13017 ft | 365 kts | 135° |
| 2026-04-25 15:11 | 29.07700 | -81.82052 | 12633 ft | 362 kts | 135° |
| 2026-04-25 15:12 | 29.04144 | -81.78041 | 11927 ft | 356 kts | 135° |
| 2026-04-25 15:12 | 29.02385 | -81.76055 | 11779 ft | 346 kts | 135° |
| 2026-04-25 15:12 | 29.02040 | -81.75666 | 11768 ft | 343 kts | 135° |
| 2026-04-25 15:13 | 29.00696 | -81.74149 | 11682 ft | 335 kts | 135° |
| 2026-04-25 15:13 | 28.98706 | -81.71884 | 11586 ft | 322 kts | 133° |
| 2026-04-25 15:14 | 28.97236 | -81.70219 | 11447 ft | 316 kts | 135° |
| 2026-04-25 15:14 | 28.95696 | -81.68482 | 11360 ft | 305 kts | 135° |
| 2026-04-25 15:15 | 28.94229 | -81.66822 | 11268 ft | 288 kts | 134° |
| 2026-04-25 15:15 | 28.92849 | -81.65264 | 11162 ft | 271 kts | 134° |
| 2026-04-25 15:15 | 28.91552 | -81.63797 | 11054 ft | 254 kts | 134° |
| 2026-04-25 15:15 | 28.90327 | -81.62413 | 10842 ft | 244 kts | 134° |
| 2026-04-25 15:16 | 28.89150 | -81.61085 | 10460 ft | 241 kts | 134° |
| 2026-04-25 15:16 | 28.87893 | -81.59672 | 10061 ft | 238 kts | 134° |
| 2026-04-25 15:16 | 28.85541 | -81.57020 | 9210 ft | 233 kts | 134° |
| 2026-04-25 15:17 | 28.83244 | -81.54447 | 8398 ft | 229 kts | 134° |
| 2026-04-25 15:17 | 28.82109 | -81.53177 | 7975 ft | 229 kts | 134° |
| 2026-04-25 15:17 | 28.80980 | -81.51920 | 7588 ft | 225 kts | 133° |
| 2026-04-25 15:18 | 28.79861 | -81.50663 | 7225 ft | 224 kts | 132° |
| 2026-04-25 15:18 | 28.77666 | -81.48199 | 6469 ft | 215 kts | 133° |
| 2026-04-25 15:18 | 28.76625 | -81.47029 | 6345 ft | 207 kts | 131° |
| 2026-04-25 15:19 | 28.75640 | -81.45904 | 6240 ft | 195 kts | 129° |
| 2026-04-25 15:19 | 28.75331 | -81.45549 | 6214 ft | 194 kts | 129° |
| 2026-04-25 15:19 | 28.73721 | -81.43700 | 5911 ft | 200 kts | 133° |
| 2026-04-25 15:19 | 28.72615 | -81.42739 | 5690 ft | 198 kts | 139° |
| 2026-04-25 15:20 | 28.71481 | -81.41853 | 5451 ft | 197 kts | 140° |
| 2026-04-25 15:20 | 28.70346 | -81.40976 | 5228 ft | 197 kts | 140° |
| 2026-04-25 15:20 | 28.69212 | -81.40102 | 4977 ft | 197 kts | 140° |
| 2026-04-25 15:20 | 28.68086 | -81.39232 | 4752 ft | 195 kts | 140° |
| 2026-04-25 15:21 | 28.66967 | -81.38367 | 4504 ft | 194 kts | 139° |
| 2026-04-25 15:21 | 28.65855 | -81.37500 | 4268 ft | 193 kts | 139° |
| 2026-04-25 15:21 | 28.64736 | -81.36624 | 4026 ft | 192 kts | 139° |
| 2026-04-25 15:21 | 28.63640 | -81.35762 | 3787 ft | 191 kts | 139° |
| 2026-04-25 15:22 | 28.62552 | -81.34901 | 3565 ft | 190 kts | 139° |
| 2026-04-25 15:22 | 28.61472 | -81.34042 | 3335 ft | 189 kts | 139° |
| 2026-04-25 15:22 | 28.60388 | -81.33191 | 3086 ft | 190 kts | 144° |
| 2026-04-25 15:22 | 28.59135 | -81.32820 | 2852 ft | 182 kts | 172° |
| 2026-04-25 15:23 | 28.57874 | -81.32797 | 2630 ft | 182 kts | 172° |
| 2026-04-25 15:23 | 28.56615 | -81.32758 | 2386 ft | 180 kts | 172° |
| 2026-04-25 15:23 | 28.55370 | -81.32734 | 2132 ft | 177 kts | 173° |
| 2026-04-25 15:23 | 28.54154 | -81.32715 | 1914 ft | 174 kts | 172° |
| 2026-04-25 15:24 | 28.52962 | -81.32705 | 1707 ft | 169 kts | 173° |
| 2026-04-25 15:24 | 28.51816 | -81.32684 | 1391 ft | 159 kts | 172° |
| 2026-04-25 15:24 | 28.50784 | -81.32733 | 1203 ft | 136 kts | 182° |
| 2026-04-25 15:24 | 28.50469 | -81.32732 | 1141 ft | 132 kts | 179° |
| 2026-04-25 15:25 | 28.48923 | -81.32723 | 896 ft | 143 kts | 179° |
| 2026-04-25 15:25 | 28.47893 | -81.32707 | 758 ft | 151 kts | 181° |
| 2026-04-25 15:25 | 28.46835 | -81.32701 | 594 ft | 150 kts | 181° |
| 2026-04-25 15:25 | 28.45812 | -81.32690 | 413 ft | 142 kts | 181° |
| 2026-04-25 15:26 | 28.44873 | -81.32691 | 188 ft | 128 kts | 180° |
| 2026-04-25 15:26 | 28.44051 | -81.32685 | 102 ft | 103 kts | 180° |
| 2026-04-25 15:26 | 28.43481 | -81.32683 | 105 ft | 66 kts | 180° |
| 2026-04-25 15:26 | 28.43145 | -81.32653 | 106 ft | 21 kts | 158° |
| 2026-04-25 15:27 | 28.43060 | -81.32534 | 103 ft | 15 kts | 99° |
| 2026-04-25 15:27 | 28.43058 | -81.32421 | 104 ft | 14 kts | 89° |
| 2026-04-25 15:27 | 28.43060 | -81.32151 | 99 ft | 20 kts | 89° |
| 2026-04-25 15:28 | 28.43043 | -81.32011 | 100 ft | 15 kts | 139° |
| 2026-04-25 15:28 | 28.42942 | -81.31992 | 102 ft | 15 kts | 179° |
| 2026-04-25 15:28 | 28.42841 | -81.31992 | 103 ft | 14 kts | 179° |
| 2026-04-25 15:28 | 28.42745 | -81.31990 | 104 ft | 14 kts | 179° |
| 2026-04-25 15:29 | 28.42652 | -81.31989 | 107 ft | 13 kts | 179° |
| 2026-04-25 15:29 | 28.42558 | -81.31988 | 108 ft | 14 kts | 179° |
| 2026-04-25 15:29 | 28.42457 | -81.31988 | 108 ft | 15 kts | 180° |
| 2026-04-25 15:29 | 28.42343 | -81.31987 | 108 ft | 18 kts | 180° |
| 2026-04-25 15:30 | 28.42264 | -81.31888 | 107 ft | 22 kts | 89° |
| 2026-04-25 15:30 | 28.42266 | -81.31682 | 101 ft | 30 kts | 89° |
| 2026-04-25 15:30 | 28.42268 | -81.31428 | 97 ft | 35 kts | 89° |
| 2026-04-25 15:30 | 28.42250 | -81.31138 | 94 ft | 39 kts | 99° |
| 2026-04-25 15:31 | 28.42243 | -81.30840 | 101 ft | 38 kts | 85° |
| 2026-04-25 15:31 | 28.42264 | -81.30531 | 104 ft | 40 kts | 85° |
| 2026-04-25 15:31 | 28.42275 | -81.30345 | 100 ft | 19 kts | 88° |
| 2026-04-25 15:31 | 28.42276 | -81.30240 | 101 ft | 21 kts | 89° |
| 2026-04-25 15:32 | 28.42279 | -81.30056 | 102 ft | 25 kts | 89° |
| 2026-04-25 15:32 | 28.42280 | -81.29858 | 103 ft | 18 kts | 90° |
| 2026-04-25 15:32 | 28.42387 | -81.29793 | 101 ft | 23 kts | 359° |
| 2026-04-25 15:33 | 28.42487 | -81.29794 | 102 ft | 25 kts | 360° |
| 2026-04-25 15:33 | 28.42511 | -81.29794 | 102 ft | 26 kts | 360° |
| 2026-04-25 15:34 | 28.42561 | -81.29795 | 102 ft | 27 kts | 359° |
| 2026-04-25 15:34 | 28.42640 | -81.29796 | 102 ft | 29 kts | 359° |